createdAt,value
2023-05-16T00:29:25.899Z,10.81
2023-05-16T00:34:35.763Z,11
2023-05-16T00:39:45.417Z,11.12
2023-05-16T00:44:55.184Z,11.06
2023-05-16T00:50:03.718Z,11.06
2023-05-16T00:55:12.143Z,11.06
2023-05-16T01:00:21.258Z,11.19
2023-05-16T01:05:30.554Z,11.06
2023-05-16T01:10:38.852Z,10.94
2023-05-16T01:15:48.701Z,10.62
2023-05-16T01:20:57.119Z,10.75
2023-05-16T01:26:06.855Z,11.12
2023-05-16T01:31:16.178Z,10.88
2023-05-16T01:36:25.713Z,10.94
2023-05-16T01:41:35.507Z,10.81
2023-05-16T01:46:44.002Z,10.31
2023-05-16T01:51:53.734Z,10.31
2023-05-16T01:57:04.132Z,10
2023-05-16T02:43:28.157Z,9
2023-05-16T02:48:37.888Z,9.25
2023-05-16T02:53:47.664Z,9.19
2023-05-16T02:58:56.131Z,9.38
2023-05-16T03:04:06.693Z,9.31
2023-05-16T03:09:16.299Z,9.56
2023-05-16T03:14:24.776Z,9.5
2023-05-16T03:19:33.262Z,9.62
2023-05-16T03:24:42.455Z,9.38
2023-05-16T03:29:51.484Z,9.38
2023-05-16T03:34:59.988Z,9.44
2023-05-16T03:40:09.099Z,9.44
2023-05-16T04:21:21.422Z,9.06
2023-05-16T04:26:30.533Z,8.94
2023-05-16T04:31:41.600Z,8.56
2023-05-16T04:36:51.985Z,8.62
2023-05-16T04:42:00.469Z,8.56
2023-05-16T04:47:08.933Z,8.69
2023-05-16T04:52:18.715Z,8.75
2023-05-16T04:57:27.826Z,9
2023-05-16T05:02:37.013Z,9.12
2023-05-16T05:07:46.064Z,8.94
2023-05-16T05:12:55.211Z,9.12
2023-05-16T05:18:05.229Z,9.44
2023-05-16T05:23:14.062Z,9.44
2023-05-16T05:28:22.536Z,9.31
2023-05-16T05:33:32.953Z,9.38
2023-05-16T05:38:41.415Z,9.12
2023-05-16T05:43:50.529Z,9.31
2023-05-16T05:48:59.652Z,9.31
2023-05-16T05:54:09.426Z,9.62
2023-05-16T05:59:18.557Z,9.81
2023-05-16T06:04:28.932Z,9.75
2023-05-16T06:50:51.054Z,10.19
2023-05-16T06:56:00.132Z,10
2023-05-16T07:01:09.944Z,10.19
2023-05-16T07:06:19.023Z,10.31
2023-05-16T07:11:28.773Z,10.69
2023-05-16T07:16:38.030Z,10.69
2023-05-16T07:21:47.662Z,11.06
2023-05-16T07:26:56.150Z,11.06
2023-05-16T08:08:07.156Z,10.88
2023-05-16T08:13:18.214Z,11.06
2023-05-16T08:18:26.751Z,11.75
2023-05-16T08:23:37.086Z,12.25
2023-05-16T08:28:45.571Z,12.25
2023-05-16T08:33:54.066Z,12.25
2023-05-16T08:39:03.189Z,11.81
2023-05-16T08:44:12.275Z,11.5
2023-05-16T08:49:20.787Z,12
2023-05-16T08:54:29.907Z,12.12
2023-05-16T08:59:38.383Z,12.5
2023-05-16T09:04:47.492Z,12.19
2023-05-16T09:09:57.901Z,12
2023-05-16T09:15:08.344Z,12.88
2023-05-16T09:20:18.055Z,13.25
2023-05-16T09:25:32.532Z,13
2023-05-16T09:30:39.494Z,12.94
2023-05-16T09:35:50.417Z,12.81
2023-05-16T09:40:59.701Z,13
2023-05-16T09:46:10.121Z,12.81
2023-05-16T09:51:39.023Z,13.12
2023-05-16T09:56:49.424Z,13.19
2023-05-16T10:01:59.470Z,13.38
2023-05-16T10:07:10.869Z,13.38
2023-05-16T10:12:22.542Z,13.12
2023-05-16T10:17:32.665Z,13.69
2023-05-16T10:22:42.057Z,14
2023-05-16T10:27:50.556Z,13.81
2023-05-16T10:32:59.096Z,13.31
2023-05-16T10:38:08.778Z,12.94
2023-05-16T10:43:17.298Z,13.62
2023-05-16T10:48:27.098Z,13.62
2023-05-16T10:53:36.799Z,14.06
2023-05-16T10:58:49.138Z,14.19
2023-05-16T11:03:59.667Z,14.19
2023-05-16T11:09:09.269Z,14.12
2023-05-16T11:14:18.371Z,14.81
2023-05-16T11:19:27.487Z,15.44
2023-05-16T11:24:36.628Z,14.5
2023-05-16T11:29:47.018Z,14.69
2023-05-16T11:34:56.130Z,15.25
2023-05-16T11:40:08.550Z,15.31
2023-05-16T12:27:24.311Z,13.38
2023-05-16T13:24:09.107Z,13.56
2023-05-16T13:29:18.231Z,13.62
2023-05-16T13:34:26.696Z,13.94
2023-05-16T13:39:37.738Z,14.31
2023-05-16T13:44:48.182Z,14.38
2023-05-16T13:49:58.558Z,14.38
2023-05-16T13:55:08.303Z,14.31
2023-05-16T14:00:45.480Z,14.31
2023-05-16T14:05:28.474Z,14.81
2023-05-16T14:10:36.938Z,14.75
2023-05-16T14:15:46.819Z,14.81
2023-05-16T14:20:56.580Z,15
2023-05-16T14:26:07.871Z,14.69
2023-05-16T14:31:21.909Z,14.44
2023-05-16T14:36:27.013Z,14.25
2023-05-16T14:41:37.456Z,14.69
2023-05-16T14:46:47.958Z,14.69
2023-05-16T14:51:56.973Z,14.88
2023-05-16T14:57:06.054Z,14.94
2023-05-16T15:02:15.288Z,14.75
2023-05-16T15:07:40.944Z,14.88
2023-05-16T15:12:50.056Z,14.69
2023-05-16T15:17:59.972Z,14.69
2023-05-16T15:23:10.208Z,14.44
2023-05-16T15:28:22.785Z,14.38
2023-05-16T15:33:29.747Z,14.25
2023-05-16T15:38:39.495Z,14.25
2023-05-16T15:43:49.264Z,13.94
2023-05-16T15:48:57.752Z,14
2023-05-16T15:54:09.436Z,13.75
2023-05-16T15:59:17.896Z,13.88
2023-05-16T16:04:27.655Z,13.88
2023-05-16T16:09:36.797Z,14
2023-05-16T16:14:45.255Z,14.12
2023-05-16T16:19:54.378Z,14.06
2023-05-16T16:25:04.148Z,14.38
2023-05-16T17:06:20.298Z,13.19
2023-05-16T17:11:30.054Z,13.06
2023-05-16T17:16:39.918Z,13.06
2023-05-16T17:21:49.577Z,13
2023-05-16T18:13:23.338Z,12.69
2023-05-16T18:18:33.829Z,12.75
2023-05-16T18:23:43.501Z,12.62
2023-05-16T18:28:52.637Z,12.31
2023-05-16T18:34:01.144Z,12.5
2023-05-16T18:39:09.550Z,12.5
2023-05-16T18:44:18.708Z,12.44
2023-05-16T18:49:29.733Z,12.38
2023-05-16T18:54:39.507Z,12.38
2023-05-16T18:59:51.038Z,12.19
2023-05-16T19:05:01.866Z,12.06
2023-05-16T19:10:08.349Z,12.12
2023-05-16T19:15:17.274Z,12
2023-05-16T19:20:25.967Z,12.06
2023-05-16T19:25:36.161Z,12
2023-05-16T19:30:44.627Z,11.88
2023-05-16T19:35:53.804Z,11.94
2023-05-16T19:41:04.163Z,11.94
2023-05-16T19:46:14.535Z,11.88
2023-05-16T19:51:41.617Z,12
2023-05-16T19:56:36.622Z,11.75
2023-05-16T20:01:45.831Z,11.88
2023-05-16T20:06:56.128Z,12.06
2023-05-16T20:12:03.979Z,11.88
2023-05-16T20:17:16.925Z,11.94
2023-05-16T20:22:26.716Z,11.62
2023-05-16T20:27:35.182Z,11.81
2023-05-16T21:08:51.973Z,11.56
2023-05-16T21:14:01.076Z,11.56
2023-05-16T21:19:10.364Z,11.62
2023-05-16T21:24:19.336Z,11.62
2023-05-16T21:29:28.450Z,11.62
2023-05-16T21:34:37.561Z,11.5
2023-05-16T21:39:46.060Z,11.44
2023-05-16T21:44:55.160Z,11.31
2023-05-16T21:50:04.298Z,11.25
2023-05-16T21:55:17.264Z,11.25
2023-05-16T22:26:14.525Z,10.69
2023-05-16T22:31:24.931Z,10.62
2023-05-16T22:52:05.880Z,10.25
2023-05-16T22:57:15.026Z,10.31
2023-05-16T23:02:24.203Z,10.31
2023-05-16T23:07:33.244Z,10.12
2023-05-16T23:12:42.387Z,10.25
2023-05-16T23:17:52.312Z,10.12
2023-05-16T23:23:01.253Z,10.06
2023-05-16T23:28:11.004Z,9.94
2023-05-16T23:33:20.993Z,10
2023-05-16T23:38:29.891Z,9.88
2023-05-16T23:43:39.011Z,9.75
2023-05-16T23:59:07.018Z,9.56
